sensor_id;sensor_type;location;lat;lon;timestamp;pressure;altitude;pressure_sealevel;temperature;humidity
23574;BME280;11965;53.640;10.050;2024-02-28T00:01:53;101844.44;;;3.75;100.00
23574;BME280;11965;53.640;10.050;2024-02-28T00:04:20;101834.75;;;3.71;100.00
23574;BME280;11965;53.640;10.050;2024-02-28T00:06:47;101836.97;;;3.77;100.00
23574;BME280;11965;53.640;10.050;2024-02-28T00:09:14;101836.84;;;3.67;100.00
23574;BME280;11965;53.640;10.050;2024-02-28T00:11:42;101834.75;;;3.82;100.00
23574;BME280;11965;53.640;10.050;2024-02-28T00:14:10;101827.25;;;3.62;100.00
23574;BME280;11965;53.640;10.050;2024-02-28T00:16:40;101823.03;;;3.35;100.00
23574;BME280;11965;53.640;10.050;2024-02-28T00:19:08;101826.72;;;3.12;100.00
23574;BME280;11965;53.640;10.050;2024-02-28T00:21:37;101826.44;;;2.92;100.00
23574;BME280;11965;53.640;10.050;2024-02-28T00:24:04;101835.69;;;2.91;100.00
23574;BME280;11965;53.640;10.050;2024-02-28T00:26:31;101831.47;;;2.98;100.00
23574;BME280;11965;53.640;10.050;2024-02-28T00:28:58;101838.41;;;2.91;100.00
23574;BME280;11965;53.640;10.050;2024-02-28T00:31:25;101818.47;;;2.78;100.00
23574;BME280;11965;53.640;10.050;2024-02-28T00:33:52;101825.81;;;2.77;100.00
23574;BME280;11965;53.640;10.050;2024-02-28T00:36:21;101820.69;;;2.73;100.00
23574;BME280;11965;53.640;10.050;2024-02-28T00:38:47;101833.03;;;2.78;100.00
23574;BME280;11965;53.640;10.050;2024-02-28T00:41:14;101837.88;;;2.75;100.00
23574;BME280;11965;53.640;10.050;2024-02-28T00:43:41;101829.28;;;2.79;100.00
23574;BME280;11965;53.640;10.050;2024-02-28T00:46:08;101815.59;;;2.79;100.00
23574;BME280;11965;53.640;10.050;2024-02-28T00:48:37;101817.22;;;2.82;100.00
23574;BME280;11965;53.640;10.050;2024-02-28T00:51:04;101808.38;;;2.78;100.00
23574;BME280;11965;53.640;10.050;2024-02-28T00:53:33;101820.09;;;2.80;100.00
23574;BME280;11965;53.640;10.050;2024-02-28T00:56:00;101814.75;;;2.90;100.00
23574;BME280;11965;53.640;10.050;2024-02-28T00:58:27;101813.53;;;2.94;100.00
23574;BME280;11965;53.640;10.050;2024-02-28T01:00:55;101811.03;;;3.02;100.00
23574;BME280;11965;53.640;10.050;2024-02-28T01:03:23;101801.34;;;2.98;100.00
23574;BME280;11965;53.640;10.050;2024-02-28T01:05:50;101810.03;;;2.92;100.00
23574;BME280;11965;53.640;10.050;2024-02-28T01:08:17;101813.00;;;2.89;100.00
23574;BME280;11965;53.640;10.050;2024-02-28T01:10:46;101808.03;;;2.94;100.00
23574;BME280;11965;53.640;10.050;2024-02-28T01:13:13;101804.28;;;2.95;100.00
23574;BME280;11965;53.640;10.050;2024-02-28T01:15:40;101811.69;;;3.17;100.00
23574;BME280;11965;53.640;10.050;2024-02-28T01:18:08;101822.66;;;3.28;100.00
23574;BME280;11965;53.640;10.050;2024-02-28T01:20:35;101806.47;;;3.25;100.00
23574;BME280;11965;53.640;10.050;2024-02-28T01:23:03;101804.47;;;3.27;100.00
23574;BME280;11965;53.640;10.050;2024-02-28T01:25:30;101801.72;;;3.16;100.00
23574;BME280;11965;53.640;10.050;2024-02-28T01:27:58;101804.81;;;3.12;100.00
23574;BME280;11965;53.640;10.050;2024-02-28T01:30:25;101799.97;;;3.15;100.00
23574;BME280;11965;53.640;10.050;2024-02-28T01:32:53;101804.59;;;3.15;100.00
23574;BME280;11965;53.640;10.050;2024-02-28T01:35:19;101790.50;;;3.08;100.00
23574;BME280;11965;53.640;10.050;2024-02-28T01:37:47;101790.75;;;3.16;100.00
23574;BME280;11965;53.640;10.050;2024-02-28T01:40:14;101787.28;;;3.25;100.00
23574;BME280;11965;53.640;10.050;2024-02-28T01:42:41;101786.38;;;3.02;100.00
23574;BME280;11965;53.640;10.050;2024-02-28T01:45:13;101791.00;;;2.91;100.00
23574;BME280;11965;53.640;10.050;2024-02-28T01:47:41;101785.88;;;3.08;100.00
23574;BME280;11965;53.640;10.050;2024-02-28T01:50:09;101785.94;;;3.20;100.00
23574;BME280;11965;53.640;10.050;2024-02-28T01:52:38;101782.94;;;3.23;100.00
23574;BME280;11965;53.640;10.050;2024-02-28T01:55:06;101781.94;;;3.13;100.00
23574;BME280;11965;53.640;10.050;2024-02-28T01:57:36;101789.53;;;3.09;100.00
23574;BME280;11965;53.640;10.050;2024-02-28T02:00:05;101786.38;;;2.91;100.00
23574;BME280;11965;53.640;10.050;2024-02-28T02:02:37;101783.56;;;2.69;100.00
23574;BME280;11965;53.640;10.050;2024-02-28T02:05:05;101779.44;;;2.52;100.00
23574;BME280;11965;53.640;10.050;2024-02-28T02:07:32;101783.09;;;2.63;100.00
23574;BME280;11965;53.640;10.050;2024-02-28T02:10:01;101782.09;;;2.76;100.00
23574;BME280;11965;53.640;10.050;2024-02-28T02:12:28;101786.22;;;2.81;100.00
23574;BME280;11965;53.640;10.050;2024-02-28T02:14:54;101795.34;;;2.93;100.00
23574;BME280;11965;53.640;10.050;2024-02-28T02:17:21;101800.94;;;2.92;100.00
23574;BME280;11965;53.640;10.050;2024-02-28T02:19:50;101805.56;;;3.02;100.00
23574;BME280;11965;53.640;10.050;2024-02-28T02:22:18;101814.13;;;2.98;100.00
23574;BME280;11965;53.640;10.050;2024-02-28T02:24:48;101813.53;;;3.05;100.00
23574;BME280;11965;53.640;10.050;2024-02-28T02:27:15;101810.19;;;3.13;100.00
23574;BME280;11965;53.640;10.050;2024-02-28T02:29:42;101811.91;;;3.03;100.00
23574;BME280;11965;53.640;10.050;2024-02-28T02:32:09;101798.97;;;3.05;100.00
23574;BME280;11965;53.640;10.050;2024-02-28T02:34:36;101803.59;;;3.04;100.00
23574;BME280;11965;53.640;10.050;2024-02-28T02:37:02;101808.72;;;3.09;100.00
23574;BME280;11965;53.640;10.050;2024-02-28T02:39:30;101807.03;;;2.84;100.00
23574;BME280;11965;53.640;10.050;2024-02-28T02:41:59;101805.03;;;2.75;100.00
23574;BME280;11965;53.640;10.050;2024-02-28T02:44:26;101810.25;;;2.78;100.00
23574;BME280;11965;53.640;10.050;2024-02-28T02:46:53;101823.19;;;2.87;100.00
23574;BME280;11965;53.640;10.050;2024-02-28T02:49:19;101811.63;;;2.83;100.00
23574;BME280;11965;53.640;10.050;2024-02-28T02:51:46;101814.72;;;2.79;100.00
23574;BME280;11965;53.640;10.050;2024-02-28T02:54:13;101817.31;;;2.69;100.00
23574;BME280;11965;53.640;10.050;2024-02-28T02:56:41;101812.28;;;2.52;100.00
23574;BME280;11965;53.640;10.050;2024-02-28T02:59:09;101824.91;;;2.41;100.00
23574;BME280;11965;53.640;10.050;2024-02-28T03:01:36;101831.25;;;2.66;100.00
23574;BME280;11965;53.640;10.050;2024-02-28T03:04:03;101833.06;;;2.54;100.00
23574;BME280;11965;53.640;10.050;2024-02-28T03:06:30;101839.91;;;2.60;100.00
23574;BME280;11965;53.640;10.050;2024-02-28T03:08:57;101832.75;;;2.70;100.00
23574;BME280;11965;53.640;10.050;2024-02-28T03:11:24;101832.16;;;2.78;100.00
23574;BME280;11965;53.640;10.050;2024-02-28T03:13:51;101835.72;;;2.67;100.00
23574;BME280;11965;53.640;10.050;2024-02-28T03:16:19;101837.91;;;2.51;100.00
23574;BME280;11965;53.640;10.050;2024-02-28T03:18:46;101843.69;;;2.70;100.00
23574;BME280;11965;53.640;10.050;2024-02-28T03:21:13;101833.38;;;2.74;100.00
23574;BME280;11965;53.640;10.050;2024-02-28T03:23:40;101838.13;;;2.72;100.00
23574;BME280;11965;53.640;10.050;2024-02-28T03:26:07;101835.91;;;2.77;100.00
23574;BME280;11965;53.640;10.050;2024-02-28T03:28:34;101834.28;;;2.74;100.00
23574;BME280;11965;53.640;10.050;2024-02-28T03:31:02;101835.38;;;2.72;100.00
23574;BME280;11965;53.640;10.050;2024-02-28T03:33:30;101826.81;;;2.52;100.00
23574;BME280;11965;53.640;10.050;2024-02-28T03:35:58;101822.97;;;2.55;100.00
23574;BME280;11965;53.640;10.050;2024-02-28T03:38:25;101817.59;;;2.42;100.00
23574;BME280;11965;53.640;10.050;2024-02-28T03:40:52;101803.84;;;2.31;100.00
23574;BME280;11965;53.640;10.050;2024-02-28T03:43:19;101818.72;;;2.39;100.00
23574;BME280;11965;53.640;10.050;2024-02-28T03:45:46;101814.91;;;2.53;100.00
23574;BME280;11965;53.640;10.050;2024-02-28T03:48:14;101815.72;;;2.42;100.00
23574;BME280;11965;53.640;10.050;2024-02-28T03:50:42;101811.38;;;2.40;100.00
23574;BME280;11965;53.640;10.050;2024-02-28T03:53:09;101811.59;;;2.37;100.00
23574;BME280;11965;53.640;10.050;2024-02-28T03:55:37;101810.13;;;2.44;100.00
23574;BME280;11965;53.640;10.050;2024-02-28T03:58:04;101813.28;;;2.51;100.00
23574;BME280;11965;53.640;10.050;2024-02-28T04:00:34;101812.00;;;2.43;100.00
23574;BME280;11965;53.640;10.050;2024-02-28T04:03:01;101807.00;;;2.37;100.00
23574;BME280;11965;53.640;10.050;2024-02-28T04:05:28;101805.63;;;2.32;100.00
23574;BME280;11965;53.640;10.050;2024-02-28T04:07:57;101809.84;;;2.36;100.00
23574;BME280;11965;53.640;10.050;2024-02-28T04:10:24;101815.31;;;2.36;100.00
23574;BME280;11965;53.640;10.050;2024-02-28T04:12:51;101810.59;;;2.38;100.00
23574;BME280;11965;53.640;10.050;2024-02-28T04:15:18;101810.59;;;2.38;100.00
23574;BME280;11965;53.640;10.050;2024-02-28T04:17:45;101810.50;;;2.39;100.00
23574;BME280;11965;53.640;10.050;2024-02-28T04:20:13;101805.47;;;2.33;100.00
23574;BME280;11965;53.640;10.050;2024-02-28T04:22:40;101800.91;;;2.34;100.00
23574;BME280;11965;53.640;10.050;2024-02-28T04:25:10;101805.13;;;2.38;100.00
23574;BME280;11965;53.640;10.050;2024-02-28T04:27:37;101799.91;;;2.35;100.00
23574;BME280;11965;53.640;10.050;2024-02-28T04:30:06;101808.47;;;2.30;100.00
23574;BME280;11965;53.640;10.050;2024-02-28T04:32:33;101805.84;;;2.29;100.00
23574;BME280;11965;53.640;10.050;2024-02-28T04:35:01;101816.56;;;2.32;100.00
23574;BME280;11965;53.640;10.050;2024-02-28T04:37:28;101812.56;;;2.36;100.00
23574;BME280;11965;53.640;10.050;2024-02-28T04:39:55;101806.53;;;2.43;100.00
23574;BME280;11965;53.640;10.050;2024-02-28T04:42:23;101805.66;;;2.43;100.00
23574;BME280;11965;53.640;10.050;2024-02-28T04:44:50;101814.59;;;2.34;100.00
23574;BME280;11965;53.640;10.050;2024-02-28T04:47:17;101825.00;;;2.29;100.00
23574;BME280;11965;53.640;10.050;2024-02-28T04:49:44;101820.88;;;2.23;100.00
23574;BME280;11965;53.640;10.050;2024-02-28T04:52:10;101819.97;;;2.22;100.00
23574;BME280;11965;53.640;10.050;2024-02-28T04:54:40;101830.28;;;2.19;100.00
23574;BME280;11965;53.640;10.050;2024-02-28T04:57:06;101823.09;;;2.18;100.00
23574;BME280;11965;53.640;10.050;2024-02-28T04:59:35;101826.56;;;2.20;100.00
23574;BME280;11965;53.640;10.050;2024-02-28T05:02:02;101820.69;;;2.13;100.00
23574;BME280;11965;53.640;10.050;2024-02-28T05:04:29;101822.78;;;2.10;100.00
23574;BME280;11965;53.640;10.050;2024-02-28T05:06:56;101828.69;;;2.04;100.00
23574;BME280;11965;53.640;10.050;2024-02-28T05:09:23;101826.34;;;1.99;100.00
23574;BME280;11965;53.640;10.050;2024-02-28T05:11:48;101831.56;;;2.02;100.00
23574;BME280;11965;53.640;10.050;2024-02-28T05:14:15;101819.97;;;1.98;100.00
23574;BME280;11965;53.640;10.050;2024-02-28T05:16:44;101816.13;;;2.01;100.00
23574;BME280;11965;53.640;10.050;2024-02-28T05:19:11;101824.34;;;2.01;100.00
23574;BME280;11965;53.640;10.050;2024-02-28T05:21:41;101828.13;;;2.11;100.00
23574;BME280;11965;53.640;10.050;2024-02-28T05:24:08;101829.53;;;2.17;100.00
23574;BME280;11965;53.640;10.050;2024-02-28T05:26:36;101830.81;;;2.24;100.00
23574;BME280;11965;53.640;10.050;2024-02-28T05:29:04;101828.59;;;2.29;100.00
23574;BME280;11965;53.640;10.050;2024-02-28T05:31:32;101831.63;;;2.37;100.00
23574;BME280;11965;53.640;10.050;2024-02-28T05:34:01;101834.22;;;2.39;100.00
23574;BME280;11965;53.640;10.050;2024-02-28T05:36:29;101839.59;;;2.40;100.00
23574;BME280;11965;53.640;10.050;2024-02-28T05:38:58;101833.25;;;2.40;100.00
23574;BME280;11965;53.640;10.050;2024-02-28T05:41:26;101829.66;;;2.39;100.00
23574;BME280;11965;53.640;10.050;2024-02-28T05:43:54;101834.50;;;2.47;100.00
23574;BME280;11965;53.640;10.050;2024-02-28T05:46:21;101836.13;;;2.50;100.00
23574;BME280;11965;53.640;10.050;2024-02-28T05:48:49;101840.88;;;2.48;100.00
23574;BME280;11965;53.640;10.050;2024-02-28T05:51:19;101835.41;;;2.48;100.00
23574;BME280;11965;53.640;10.050;2024-02-28T05:53:48;101839.00;;;2.48;100.00
23574;BME280;11965;53.640;10.050;2024-02-28T05:56:15;101846.22;;;2.49;100.00
23574;BME280;11965;53.640;10.050;2024-02-28T05:58:44;101846.97;;;2.51;100.00
23574;BME280;11965;53.640;10.050;2024-02-28T06:01:12;101848.50;;;2.55;100.00
23574;BME280;11965;53.640;10.050;2024-02-28T06:03:39;101843.75;;;2.57;100.00
23574;BME280;11965;53.640;10.050;2024-02-28T06:06:06;101843.13;;;2.54;100.00
23574;BME280;11965;53.640;10.050;2024-02-28T06:08:37;101838.28;;;2.57;100.00
23574;BME280;11965;53.640;10.050;2024-02-28T06:11:04;101854.59;;;2.59;100.00
23574;BME280;11965;53.640;10.050;2024-02-28T06:13:32;101863.72;;;2.71;100.00
23574;BME280;11965;53.640;10.050;2024-02-28T06:15:59;101856.84;;;2.65;100.00
23574;BME280;11965;53.640;10.050;2024-02-28T06:18:27;101857.47;;;2.69;100.00
23574;BME280;11965;53.640;10.050;2024-02-28T06:20:56;101854.75;;;2.69;100.00
23574;BME280;11965;53.640;10.050;2024-02-28T06:23:23;101849.16;;;2.70;100.00
23574;BME280;11965;53.640;10.050;2024-02-28T06:25:52;101863.88;;;2.69;100.00
23574;BME280;11965;53.640;10.050;2024-02-28T06:28:18;101864.47;;;2.73;100.00
23574;BME280;11965;53.640;10.050;2024-02-28T06:30:46;101865.34;;;2.73;100.00
23574;BME280;11965;53.640;10.050;2024-02-28T06:33:13;101868.59;;;2.78;100.00
23574;BME280;11965;53.640;10.050;2024-02-28T06:35:40;101869.13;;;2.83;100.00
23574;BME280;11965;53.640;10.050;2024-02-28T06:38:07;101873.84;;;2.81;100.00
23574;BME280;11965;53.640;10.050;2024-02-28T06:40:35;101874.94;;;2.79;100.00
23574;BME280;11965;53.640;10.050;2024-02-28T06:43:03;101878.34;;;2.82;100.00
23574;BME280;11965;53.640;10.050;2024-02-28T06:45:31;101887.81;;;2.90;100.00
23574;BME280;11965;53.640;10.050;2024-02-28T06:47:58;101891.03;;;2.83;100.00
23574;BME280;11965;53.640;10.050;2024-02-28T06:50:25;101885.03;;;2.78;100.00
23574;BME280;11965;53.640;10.050;2024-02-28T06:52:52;101891.13;;;2.82;100.00
23574;BME280;11965;53.640;10.050;2024-02-28T06:55:19;101888.88;;;2.76;100.00
23574;BME280;11965;53.640;10.050;2024-02-28T06:57:46;101901.47;;;2.78;100.00
23574;BME280;11965;53.640;10.050;2024-02-28T07:00:15;101896.00;;;2.78;100.00
23574;BME280;11965;53.640;10.050;2024-02-28T07:02:44;101889.50;;;2.79;100.00
23574;BME280;11965;53.640;10.050;2024-02-28T07:05:12;101885.16;;;2.77;100.00
23574;BME280;11965;53.640;10.050;2024-02-28T07:07:49;101878.97;;;2.86;100.00
23574;BME280;11965;53.640;10.050;2024-02-28T07:10:16;101886.84;;;2.91;100.00
23574;BME280;11965;53.640;10.050;2024-02-28T07:12:43;101886.38;;;3.08;100.00
23574;BME280;11965;53.640;10.050;2024-02-28T07:15:10;101885.25;;;3.10;100.00
23574;BME280;11965;53.640;10.050;2024-02-28T07:17:37;101894.00;;;3.16;100.00
23574;BME280;11965;53.640;10.050;2024-02-28T07:20:05;101905.47;;;3.21;100.00
23574;BME280;11965;53.640;10.050;2024-02-28T07:22:32;101907.09;;;3.23;100.00
23574;BME280;11965;53.640;10.050;2024-02-28T07:24:59;101899.50;;;3.27;100.00
23574;BME280;11965;53.640;10.050;2024-02-28T07:27:26;101886.81;;;3.37;100.00
23574;BME280;11965;53.640;10.050;2024-02-28T07:29:53;101898.53;;;3.39;100.00
23574;BME280;11965;53.640;10.050;2024-02-28T07:32:20;101898.88;;;3.35;100.00
23574;BME280;11965;53.640;10.050;2024-02-28T07:34:48;101903.16;;;3.50;100.00
23574;BME280;11965;53.640;10.050;2024-02-28T07:37:16;101892.56;;;3.57;100.00
23574;BME280;11965;53.640;10.050;2024-02-28T07:39:43;101906.66;;;3.63;100.00
23574;BME280;11965;53.640;10.050;2024-02-28T07:42:09;101908.66;;;3.72;100.00
23574;BME280;11965;53.640;10.050;2024-02-28T07:44:36;101916.88;;;3.84;100.00
23574;BME280;11965;53.640;10.050;2024-02-28T07:47:05;101911.78;;;3.79;100.00
23574;BME280;11965;53.640;10.050;2024-02-28T07:49:32;101900.66;;;3.81;100.00
23574;BME280;11965;53.640;10.050;2024-02-28T07:52:01;101924.38;;;3.82;100.00
23574;BME280;11965;53.640;10.050;2024-02-28T07:54:28;101911.78;;;3.90;100.00
23574;BME280;11965;53.640;10.050;2024-02-28T07:56:55;101921.97;;;3.99;100.00
23574;BME280;11965;53.640;10.050;2024-02-28T07:59:22;101909.13;;;4.11;100.00
23574;BME280;11965;53.640;10.050;2024-02-28T08:01:48;101914.50;;;4.02;100.00
23574;BME280;11965;53.640;10.050;2024-02-28T08:04:15;101916.25;;;3.91;100.00
23574;BME280;11965;53.640;10.050;2024-02-28T08:06:42;101915.13;;;4.16;100.00
23574;BME280;11965;53.640;10.050;2024-02-28T08:09:11;101916.84;;;4.17;100.00
23574;BME280;11965;53.640;10.050;2024-02-28T08:11:38;101918.94;;;4.36;100.00
23574;BME280;11965;53.640;10.050;2024-02-28T08:14:05;101920.19;;;4.43;100.00
23574;BME280;11965;53.640;10.050;2024-02-28T08:16:32;101932.78;;;4.46;100.00
23574;BME280;11965;53.640;10.050;2024-02-28T08:18:59;101930.00;;;4.57;100.00
23574;BME280;11965;53.640;10.050;2024-02-28T08:21:26;101928.84;;;4.71;100.00
23574;BME280;11965;53.640;10.050;2024-02-28T08:23:53;101925.59;;;4.66;100.00
23574;BME280;11965;53.640;10.050;2024-02-28T08:26:23;101927.22;;;4.69;100.00
23574;BME280;11965;53.640;10.050;2024-02-28T08:28:50;101930.72;;;5.03;100.00
23574;BME280;11965;53.640;10.050;2024-02-28T08:31:17;101925.50;;;4.88;100.00
23574;BME280;11965;53.640;10.050;2024-02-28T08:33:43;101943.31;;;5.26;100.00
23574;BME280;11965;53.640;10.050;2024-02-28T08:36:10;101935.59;;;5.20;100.00
23574;BME280;11965;53.640;10.050;2024-02-28T08:38:37;101927.09;;;5.44;99.84
23574;BME280;11965;53.640;10.050;2024-02-28T08:41:05;101924.69;;;5.51;96.55
23574;BME280;11965;53.640;10.050;2024-02-28T08:43:37;101930.66;;;5.35;98.61
23574;BME280;11965;53.640;10.050;2024-02-28T08:46:04;101930.66;;;5.35;97.89
23574;BME280;11965;53.640;10.050;2024-02-28T08:48:31;101935.53;;;5.31;98.00
23574;BME280;11965;53.640;10.050;2024-02-28T08:50:58;101935.41;;;5.54;95.93
23574;BME280;11965;53.640;10.050;2024-02-28T08:53:26;101940.50;;;5.17;98.47
23574;BME280;11965;53.640;10.050;2024-02-28T08:55:53;101928.38;;;5.40;97.59
23574;BME280;11965;53.640;10.050;2024-02-28T08:58:20;101937.78;;;5.38;96.42
23574;BME280;11965;53.640;10.050;2024-02-28T09:00:48;101941.44;;;5.48;97.15
23574;BME280;11965;53.640;10.050;2024-02-28T09:03:15;101944.25;;;5.37;99.40
23574;BME280;11965;53.640;10.050;2024-02-28T09:05:42;101944.31;;;5.67;99.10
23574;BME280;11965;53.640;10.050;2024-02-28T09:08:09;101942.91;;;5.94;97.43
23574;BME280;11965;53.640;10.050;2024-02-28T09:10:36;101940.34;;;6.12;94.82
23574;BME280;11965;53.640;10.050;2024-02-28T09:13:03;101940.25;;;6.23;93.57
23574;BME280;11965;53.640;10.050;2024-02-28T09:15:32;101946.88;;;6.51;92.66
23574;BME280;11965;53.640;10.050;2024-02-28T09:18:01;101947.06;;;7.37;88.64
23574;BME280;11965;53.640;10.050;2024-02-28T09:20:28;101941.13;;;7.42;84.54
23574;BME280;11965;53.640;10.050;2024-02-28T09:22:55;101941.38;;;7.58;82.47
23574;BME280;11965;53.640;10.050;2024-02-28T09:25:22;101940.81;;;7.45;84.45
23574;BME280;11965;53.640;10.050;2024-02-28T09:27:49;101929.81;;;6.96;87.00
23574;BME280;11965;53.640;10.050;2024-02-28T09:30:16;101935.47;;;7.24;84.87
23574;BME280;11965;53.640;10.050;2024-02-28T09:32:43;101935.44;;;7.43;86.06
23574;BME280;11965;53.640;10.050;2024-02-28T09:35:12;101927.91;;;7.45;84.47
23574;BME280;11965;53.640;10.050;2024-02-28T09:37:39;101930.53;;;6.98;85.54
23574;BME280;11965;53.640;10.050;2024-02-28T09:40:09;101943.88;;;6.64;88.89
23574;BME280;11965;53.640;10.050;2024-02-28T09:42:36;101943.69;;;6.66;88.95
23574;BME280;11965;53.640;10.050;2024-02-28T09:45:04;101932.84;;;6.74;90.82
23574;BME280;11965;53.640;10.050;2024-02-28T09:47:35;101940.41;;;7.11;87.52
23574;BME280;11965;53.640;10.050;2024-02-28T09:50:03;101946.38;;;7.16;86.22
23574;BME280;11965;53.640;10.050;2024-02-28T09:52:32;101950.16;;;7.15;85.70
23574;BME280;11965;53.640;10.050;2024-02-28T09:54:58;101947.94;;;6.89;88.22
23574;BME280;11965;53.640;10.050;2024-02-28T09:57:26;101949.91;;;6.58;89.79
23574;BME280;11965;53.640;10.050;2024-02-28T09:59:58;101942.25;;;6.71;91.18
23574;BME280;11965;53.640;10.050;2024-02-28T10:02:26;101939.81;;;6.88;88.72
23574;BME280;11965;53.640;10.050;2024-02-28T10:04:55;101943.03;;;7.12;85.74
23574;BME280;11965;53.640;10.050;2024-02-28T10:07:23;101948.22;;;7.25;84.59
23574;BME280;11965;53.640;10.050;2024-02-28T10:09:51;101943.59;;;7.35;84.63
23574;BME280;11965;53.640;10.050;2024-02-28T10:12:19;101941.81;;;7.53;82.08
23574;BME280;11965;53.640;10.050;2024-02-28T10:14:49;101939.09;;;7.34;83.94
23574;BME280;11965;53.640;10.050;2024-02-28T10:17:16;101945.63;;;7.43;83.85
23574;BME280;11965;53.640;10.050;2024-02-28T10:19:43;101941.25;;;7.40;82.29
23574;BME280;11965;53.640;10.050;2024-02-28T10:22:10;101934.13;;;7.47;82.89
23574;BME280;11965;53.640;10.050;2024-02-28T10:24:37;101944.00;;;7.50;83.98
23574;BME280;11965;53.640;10.050;2024-02-28T10:27:06;101938.88;;;7.65;82.29
23574;BME280;11965;53.640;10.050;2024-02-28T10:29:33;101939.06;;;7.63;86.17
23574;BME280;11965;53.640;10.050;2024-02-28T10:32:00;101947.28;;;7.73;82.62
23574;BME280;11965;53.640;10.050;2024-02-28T10:34:29;101949.97;;;7.92;80.79
23574;BME280;11965;53.640;10.050;2024-02-28T10:36:57;101947.31;;;8.10;80.27
23574;BME280;11965;53.640;10.050;2024-02-28T10:39:26;101947.53;;;8.27;80.04
23574;BME280;11965;53.640;10.050;2024-02-28T10:41:57;101948.16;;;8.48;77.74
23574;BME280;11965;53.640;10.050;2024-02-28T10:44:29;101957.34;;;9.12;76.45
23574;BME280;11965;53.640;10.050;2024-02-28T10:47:00;101958.59;;;9.36;75.11
23574;BME280;11965;53.640;10.050;2024-02-28T10:49:28;101953.06;;;9.36;72.35
23574;BME280;11965;53.640;10.050;2024-02-28T10:51:56;101967.06;;;9.34;74.84
23574;BME280;11965;53.640;10.050;2024-02-28T10:54:29;101967.56;;;9.56;73.17
23574;BME280;11965;53.640;10.050;2024-02-28T10:56:59;101968.66;;;9.19;74.08
23574;BME280;11965;53.640;10.050;2024-02-28T10:59:29;101954.63;;;9.02;77.48
23574;BME280;11965;53.640;10.050;2024-02-28T11:02:01;101967.75;;;9.18;75.63
23574;BME280;11965;53.640;10.050;2024-02-28T11:04:30;101966.97;;;9.44;74.22
23574;BME280;11965;53.640;10.050;2024-02-28T11:06:57;101964.28;;;9.52;73.35
23574;BME280;11965;53.640;10.050;2024-02-28T11:09:25;101959.44;;;9.54;74.43
23574;BME280;11965;53.640;10.050;2024-02-28T11:11:53;101956.16;;;9.33;75.01
23574;BME280;11965;53.640;10.050;2024-02-28T11:14:21;101966.44;;;9.40;73.20
23574;BME280;11965;53.640;10.050;2024-02-28T11:17:01;101957.66;;;9.27;75.91
23574;BME280;11965;53.640;10.050;2024-02-28T11:19:29;101962.84;;;9.48;75.60
23574;BME280;11965;53.640;10.050;2024-02-28T11:21:59;101962.41;;;9.79;73.67
23574;BME280;11965;53.640;10.050;2024-02-28T11:24:30;101948.88;;;9.76;73.47
23574;BME280;11965;53.640;10.050;2024-02-28T11:26:57;101961.19;;;9.37;73.71
23574;BME280;11965;53.640;10.050;2024-02-28T11:29:25;101957.47;;;9.46;74.59
23574;BME280;11965;53.640;10.050;2024-02-28T11:31:53;101951.88;;;9.38;75.70
23574;BME280;11965;53.640;10.050;2024-02-28T11:34:22;101954.25;;;9.51;74.29
23574;BME280;11965;53.640;10.050;2024-02-28T11:36:49;101962.31;;;9.44;74.16
23574;BME280;11965;53.640;10.050;2024-02-28T11:39:17;101957.88;;;9.51;73.18
23574;BME280;11965;53.640;10.050;2024-02-28T11:41:46;101967.56;;;9.56;74.90
23574;BME280;11965;53.640;10.050;2024-02-28T11:44:15;101964.19;;;9.62;73.95
23574;BME280;11965;53.640;10.050;2024-02-28T11:46:43;101965.84;;;9.37;76.50
23574;BME280;11965;53.640;10.050;2024-02-28T11:49:11;101965.22;;;9.43;74.13
23574;BME280;11965;53.640;10.050;2024-02-28T11:51:41;101964.38;;;9.24;75.26
23574;BME280;11965;53.640;10.050;2024-02-28T11:54:09;101970.13;;;9.49;74.77
23574;BME280;11965;53.640;10.050;2024-02-28T11:56:36;101968.59;;;9.72;74.65
23574;BME280;11965;53.640;10.050;2024-02-28T11:59:04;101964.00;;;9.63;74.20
23574;BME280;11965;53.640;10.050;2024-02-28T12:01:35;101964.94;;;9.72;73.73
23574;BME280;11965;53.640;10.050;2024-02-28T12:04:03;101961.69;;;9.33;76.67
23574;BME280;11965;53.640;10.050;2024-02-28T12:06:32;101956.91;;;9.43;74.85
23574;BME280;11965;53.640;10.050;2024-02-28T12:09:00;101961.50;;;9.34;75.38
23574;BME280;11965;53.640;10.050;2024-02-28T12:11:29;101962.06;;;8.84;77.32
23574;BME280;11965;53.640;10.050;2024-02-28T12:13:56;101965.34;;;8.97;77.89
23574;BME280;11965;53.640;10.050;2024-02-28T12:16:24;101962.09;;;9.20;78.83
23574;BME280;11965;53.640;10.050;2024-02-28T12:18:53;101963.09;;;9.37;77.12
23574;BME280;11965;53.640;10.050;2024-02-28T12:21:20;101965.00;;;9.54;76.62
23574;BME280;11965;53.640;10.050;2024-02-28T12:23:49;101962.16;;;9.46;75.30
23574;BME280;11965;53.640;10.050;2024-02-28T12:26:18;101956.38;;;9.21;76.97
23574;BME280;11965;53.640;10.050;2024-02-28T12:28:45;101954.72;;;9.11;78.23
23574;BME280;11965;53.640;10.050;2024-02-28T12:31:13;101961.28;;;9.10;78.45
23574;BME280;11965;53.640;10.050;2024-02-28T12:33:40;101957.03;;;9.15;75.69
23574;BME280;11965;53.640;10.050;2024-02-28T12:36:07;101954.00;;;8.91;78.16
23574;BME280;11965;53.640;10.050;2024-02-28T12:38:34;101946.84;;;8.98;79.10
23574;BME280;11965;53.640;10.050;2024-02-28T12:41:02;101947.53;;;9.00;77.17
23574;BME280;11965;53.640;10.050;2024-02-28T12:43:31;101935.44;;;8.83;80.35
23574;BME280;11965;53.640;10.050;2024-02-28T12:45:58;101932.78;;;8.46;81.78